Time;durP1;ratioP1;P1;durP2;ratioP2;P2;SDS_P1;SDS_P2;PMS_P1;PMS_P2;Temp;Humidity;BMP_temperature;BMP_pressure;BME280_temperature;BME280_humidity;BME280_pressure;Samples;Min_cycle;Max_cycle;Signal;HPM_P1;HPM_P2
2023/08/22 00:00:28;;;;;;;9.80;4.00;;;;;;;22.44;100.00;99818.67;105461;1254;60540;-51
2023/08/22 00:02:56;;;;;;;4.50;4.20;;;;;;;22.44;100.00;99818.67;105454;1255;73819;-51
2023/08/22 00:05:24;;;;;;;4.60;4.40;;;;;;;22.43;100.00;99818.94;106060;1255;67056;-49
2023/08/22 00:07:51;;;;;;;5.40;5.00;;;;;;;22.42;100.00;99814.23;105365;1262;72672;-49
2023/08/22 00:10:18;;;;;;;4.50;4.30;;;;;;;22.41;100.00;99811.05;105575;1254;60500;-50
2023/08/22 00:12:46;;;;;;;4.80;4.40;;;;;;;22.41;100.00;99810.39;105364;1254;60511;-49
2023/08/22 00:15:13;;;;;;;7.00;5.70;;;;;;;22.39;100.00;99809.63;105327;1258;74301;-50
2023/08/22 00:17:41;;;;;;;7.90;4.50;;;;;;;22.37;100.00;99813.36;105369;1254;67324;-50
2023/08/22 00:20:13;;;;;;;6.10;4.30;;;;;;;22.35;100.00;99812.95;105910;1257;72673;-51
2023/08/22 00:22:41;;;;;;;4.70;3.40;;;;;;;22.33;100.00;99819.84;105455;1257;60552;-50
2023/08/22 00:25:10;;;;;;;4.50;4.10;;;;;;;22.32;100.00;99818.31;105323;1259;60479;-49
2023/08/22 00:27:37;;;;;;;4.60;4.20;;;;;;;22.30;100.00;99822.89;105308;1261;73768;-50
2023/08/22 00:30:06;;;;;;;4.00;3.40;;;;;;;22.30;100.00;99818.36;105353;1254;67869;-52
2023/08/22 00:32:33;;;;;;;4.20;3.90;;;;;;;22.30;100.00;99812.30;105366;1259;72499;-51
2023/08/22 00:35:01;;;;;;;4.50;4.20;;;;;;;22.30;100.00;99812.16;105564;1254;61729;-51
2023/08/22 00:37:28;;;;;;;5.20;3.70;;;;;;;22.29;100.00;99804.89;105381;1255;60805;-52
2023/08/22 00:39:56;;;;;;;3.80;3.60;;;;;;;22.30;100.00;99803.77;105357;1254;73123;-50
2023/08/22 00:42:23;;;;;;;5.20;4.40;;;;;;;22.30;100.00;99802.67;104840;1254;65934;-49
2023/08/22 00:44:53;;;;;;;4.90;4.50;;;;;;;22.29;100.00;99804.41;104910;1258;71396;-49
2023/08/22 00:47:21;;;;;;;5.20;4.70;;;;;;;22.27;100.00;99806.93;105392;1254;60479;-50
2023/08/22 00:49:48;;;;;;;5.70;5.30;;;;;;;22.24;100.00;99802.23;105260;1259;60451;-52
2023/08/22 00:52:15;;;;;;;4.20;4.10;;;;;;;22.23;100.00;99799.80;105282;1258;73833;-51
2023/08/22 00:54:43;;;;;;;5.00;4.80;;;;;;;22.20;100.00;99798.59;105355;1262;66924;-49
2023/08/22 00:57:10;;;;;;;8.30;4.40;;;;;;;22.19;100.00;99795.64;105247;1259;72734;-49
2023/08/22 00:59:38;;;;;;;4.10;3.80;;;;;;;22.17;100.00;99797.54;105326;1253;63648;-48
2023/08/22 01:02:07;;;;;;;4.20;3.80;;;;;;;22.16;100.00;99804.20;105329;1258;60409;-51
2023/08/22 01:04:34;;;;;;;5.10;4.00;;;;;;;22.15;100.00;99805.20;105367;1256;74289;-51
2023/08/22 01:07:20;;;;;;;4.20;3.90;;;;;;;22.14;100.00;99805.67;105335;1254;66884;-50
2023/08/22 01:10:00;;;;;;;4.10;3.30;;;;;;;22.12;100.00;99807.48;105213;1256;72425;-49
2023/08/22 01:13:00;;;;;;;3.90;3.70;;;;;;;22.10;100.00;99805.31;105177;1259;61586;-50
2023/08/22 01:15:28;;;;;;;3.10;2.80;;;;;;;22.08;100.00;99807.88;105214;1259;61243;-50
2023/08/22 01:17:56;;;;;;;3.40;2.70;;;;;;;22.07;100.00;99816.70;105237;1257;72608;-49
2023/08/22 01:20:27;;;;;;;3.30;3.00;;;;;;;22.07;100.00;99820.20;105167;1257;67658;-50
2023/08/22 01:22:56;;;;;;;5.10;2.90;;;;;;;22.07;100.00;99821.49;105143;1254;71992;-49
2023/08/22 01:25:24;;;;;;;3.30;3.10;;;;;;;22.05;100.00;99814.36;105261;1259;61726;-48
2023/08/22 01:27:57;;;;;;;3.50;3.10;;;;;;;22.03;100.00;99818.55;105098;1254;60616;-50
2023/08/22 01:30:46;;;;;;;4.10;3.50;;;;;;;22.01;100.00;99815.45;105176;1259;73930;-52
2023/08/22 01:33:24;;;;;;;2.70;2.60;;;;;;;22.00;100.00;99822.66;105204;1258;66501;-49
2023/08/22 01:35:52;;;;;;;3.20;3.00;;;;;;;21.99;100.00;99825.88;108913;1254;72216;-50
2023/08/22 01:38:20;;;;;;;3.30;2.50;;;;;;;21.99;100.00;99828.63;108929;1254;60575;-52
2023/08/22 01:40:47;;;;;;;3.10;3.00;;;;;;;21.99;100.00;99825.22;108663;1253;59224;-49
2023/08/22 01:43:15;;;;;;;3.00;2.60;;;;;;;21.96;100.00;99828.13;109009;1254;74097;-51
2023/08/22 01:45:42;;;;;;;2.40;2.30;;;;;;;21.94;100.00;99827.07;109173;1253;66294;-51
2023/08/22 01:48:10;;;;;;;5.80;2.80;;;;;;;21.94;100.00;99820.18;109062;1254;71239;-50
2023/08/22 01:50:37;;;;;;;2.70;2.60;;;;;;;21.95;100.00;99825.36;106381;1255;61178;-49
2023/08/22 01:53:06;;;;;;;2.70;2.50;;;;;;;21.94;100.00;99826.70;105326;1254;60880;-50
2023/08/22 01:55:33;;;;;;;4.20;2.20;;;;;;;21.92;100.00;99835.48;105223;1254;73782;-52
2023/08/22 01:58:03;;;;;;;3.30;3.10;;;;;;;21.89;100.00;99836.11;105313;1259;65552;-50
2023/08/22 02:00:31;;;;;;;2.70;2.60;;;;;;;21.87;100.00;99837.70;105354;1255;73760;-50
2023/08/22 02:02:58;;;;;;;2.50;2.40;;;;;;;21.84;100.00;99842.79;105312;1257;61742;-50
2023/08/22 02:05:26;;;;;;;2.40;2.30;;;;;;;21.79;100.00;99843.84;105409;1254;60494;-50
2023/08/22 02:07:53;;;;;;;3.00;2.80;;;;;;;21.74;100.00;99846.64;105282;1254;73397;-51
2023/08/22 02:10:22;;;;;;;2.20;2.10;;;;;;;21.72;100.00;99846.31;105851;1254;67680;-50
2023/08/22 02:12:49;;;;;;;2.50;2.40;;;;;;;21.69;100.00;99842.90;105200;1254;72610;-50
2023/08/22 02:15:17;;;;;;;3.50;2.40;;;;;;;21.66;100.00;99844.70;105117;1257;61483;-51
2023/08/22 02:17:45;;;;;;;2.40;2.30;;;;;;;21.63;100.00;99852.12;105149;1262;60520;-50
2023/08/22 02:20:12;;;;;;;2.70;2.00;;;;;;;21.60;100.00;99854.02;105108;1254;73245;-49
2023/08/22 02:22:40;;;;;;;2.20;2.10;;;;;;;21.55;100.00;99858.70;105253;1258;67506;-52
2023/08/22 02:25:08;;;;;;;2.30;2.20;;;;;;;21.48;100.00;99857.70;105269;1254;72355;-51
2023/08/22 02:27:39;;;;;;;2.50;2.30;;;;;;;21.44;100.00;99858.05;105068;1254;61696;-51
2023/08/22 02:30:07;;;;;;;2.60;2.40;;;;;;;21.38;100.00;99859.50;105292;1254;60501;-51
2023/08/22 02:32:35;;;;;;;2.70;2.50;;;;;;;21.33;100.00;99860.66;105024;1259;73831;-51
2023/08/22 02:35:04;;;;;;;2.30;2.10;;;;;;;21.30;100.00;99859.02;106423;1257;65514;-52
2023/08/22 02:37:31;;;;;;;2.10;1.90;;;;;;;21.26;100.00;99861.92;105257;1254;72467;-50
2023/08/22 02:39:59;;;;;;;2.50;2.40;;;;;;;21.23;100.00;99856.18;105273;1259;60558;-51
2023/08/22 02:42:26;;;;;;;2.10;2.00;;;;;;;21.20;100.00;99859.38;105368;1257;60363;-51
2023/08/22 02:44:54;;;;;;;1.40;1.30;;;;;;;21.17;100.00;99861.79;105224;1259;73782;-50
2023/08/22 02:47:21;;;;;;;2.80;2.60;;;;;;;21.14;100.00;99860.35;105072;1260;66709;-52
2023/08/22 02:49:48;;;;;;;1.90;1.80;;;;;;;21.13;100.00;99860.66;105354;1258;71667;-50
2023/08/22 02:52:16;;;;;;;3.30;3.00;;;;;;;21.11;100.00;99866.08;105758;1254;61683;-51
2023/08/22 02:54:44;;;;;;;3.80;1.60;;;;;;;21.09;100.00;99862.33;105230;1254;60460;-51
2023/08/22 02:57:12;;;;;;;3.60;1.70;;;;;;;21.06;100.00;99871.90;105264;1259;73831;-50
2023/08/22 02:59:40;;;;;;;2.20;1.60;;;;;;;21.02;100.00;99873.31;105766;1254;66817;-50
2023/08/22 03:02:08;;;;;;;2.00;1.70;;;;;;;20.99;100.00;99872.89;105529;1259;72668;-51
2023/08/22 03:04:37;;;;;;;2.10;1.60;;;;;;;20.97;100.00;99873.81;105593;1254;60633;-49
2023/08/22 03:07:05;;;;;;;2.20;2.00;;;;;;;20.94;100.00;99873.10;105587;1259;60453;-51
2023/08/22 03:09:32;;;;;;;2.40;2.00;;;;;;;20.91;100.00;99877.08;105405;1259;72628;-51
2023/08/22 03:12:00;;;;;;;4.80;1.90;;;;;;;20.89;100.00;99875.27;105961;1259;66338;-51
2023/08/22 03:14:27;;;;;;;2.30;1.90;;;;;;;20.87;100.00;99876.55;105453;1259;71373;-50
2023/08/22 03:16:55;;;;;;;2.70;2.50;;;;;;;20.86;100.00;99878.59;105506;1254;60569;-51
2023/08/22 03:19:22;;;;;;;1.50;1.40;;;;;;;20.85;100.00;99880.03;105435;1260;60406;-52
2023/08/22 03:21:54;;;;;;;1.90;1.70;;;;;;;20.82;100.00;99880.23;105687;1258;73847;-50
2023/08/22 03:24:21;;;;;;;1.90;1.50;;;;;;;20.78;100.00;99878.90;105376;1254;66903;-52
2023/08/22 03:26:49;;;;;;;10.40;2.40;;;;;;;20.75;100.00;99881.57;105396;1258;71398;-50
2023/08/22 03:29:16;;;;;;;3.10;1.50;;;;;;;20.72;100.00;99884.02;106012;1260;61591;-52
2023/08/22 03:31:45;;;;;;;1.60;1.50;;;;;;;20.70;100.00;99887.46;105803;1257;60584;-51
2023/08/22 03:34:13;;;;;;;1.60;1.50;;;;;;;20.69;100.00;99890.66;106155;1256;73197;-51
2023/08/22 03:36:40;;;;;;;2.20;1.40;;;;;;;20.68;100.00;99890.24;105489;1259;67148;-52
2023/08/22 03:39:08;;;;;;;1.80;1.70;;;;;;;20.66;100.00;99891.48;105606;1260;72684;-49
2023/08/22 03:41:35;;;;;;;2.00;1.50;;;;;;;20.66;100.00;99890.24;105382;1259;61790;-50
2023/08/22 03:44:03;;;;;;;5.60;1.20;;;;;;;20.64;100.00;99893.86;105501;1258;60552;-50
2023/08/22 03:46:30;;;;;;;1.60;1.50;;;;;;;20.65;100.00;99898.76;105448;1259;73871;-51
2023/08/22 03:49:08;;;;;;;1.80;1.40;;;;;;;20.62;100.00;99896.02;105591;1254;65634;-52
2023/08/22 03:51:36;;;;;;;1.50;1.20;;;;;;;20.60;100.00;99896.20;105414;1259;73471;-51
2023/08/22 03:54:03;;;;;;;1.70;1.00;;;;;;;20.60;100.00;99899.88;105335;1254;60768;-49
2023/08/22 03:56:30;;;;;;;1.40;1.30;;;;;;;20.60;100.00;99899.16;105423;1254;60535;-50
2023/08/22 03:58:59;;;;;;;1.10;1.00;;;;;;;20.60;100.00;99900.11;107637;1258;73875;-49
2023/08/22 04:01:26;;;;;;;1.00;1.00;;;;;;;20.59;100.00;99902.88;105397;1258;67614;-51
2023/08/22 04:03:54;;;;;;;1.70;1.00;;;;;;;20.58;100.00;99903.55;108875;1255;71244;-52
2023/08/22 04:06:21;;;;;;;3.10;1.00;;;;;;;20.57;100.00;99900.35;108981;1254;60379;-52
2023/08/22 04:08:49;;;;;;;1.20;1.10;;;;;;;20.60;100.00;99906.63;109076;1257;60039;-51
2023/08/22 04:11:16;;;;;;;1.20;1.00;;;;;;;20.67;100.00;99908.90;109082;1253;74219;-52
2023/08/22 04:13:44;;;;;;;5.10;1.70;;;;;;;20.79;100.00;99908.40;108913;1254;65689;-51
2023/08/22 04:16:11;;;;;;;4.40;0.90;;;;;;;20.90;100.00;99912.16;108920;1254;72624;-53
2023/08/22 04:18:39;;;;;;;1.10;1.00;;;;;;;20.99;100.00;99911.41;108932;1254;62069;-51
2023/08/22 04:21:07;;;;;;;1.50;1.10;;;;;;;21.07;100.00;99915.00;108925;1253;60523;-51
2023/08/22 04:23:35;;;;;;;2.20;1.00;;;;;;;21.16;100.00;99917.30;108959;1254;73833;-50
2023/08/22 04:26:02;;;;;;;1.20;1.10;;;;;;;21.33;100.00;99911.80;105305;1260;66762;-49
2023/08/22 04:28:33;;;;;;;3.00;1.00;;;;;;;21.51;100.00;99914.20;105118;1257;71541;-50
2023/08/22 04:31:01;;;;;;;2.10;1.10;;;;;;;21.67;100.00;99921.11;108960;1258;58866;-52
2023/08/22 04:33:29;;;;;;;1.60;1.00;;;;;;;21.86;100.00;99921.56;105589;1255;60485;-48
2023/08/22 04:35:57;;;;;;;6.00;1.10;;;;;;;22.10;100.00;99920.98;109022;1254;73855;-49
2023/08/22 04:38:25;;;;;;;2.00;1.40;;;;;;;22.35;100.00;99927.05;109050;1254;67639;-50
2023/08/22 04:40:54;;;;;;;2.00;1.00;;;;;;;22.51;100.00;99927.88;109032;1254;73107;-50
2023/08/22 04:43:41;;;;;;;1.10;1.00;;;;;;;22.56;100.00;99929.94;108905;1254;61115;-50
2023/08/22 04:46:09;;;;;;;1.60;1.10;;;;;;;22.61;100.00;99933.27;108929;1254;58831;-51
2023/08/22 04:48:36;;;;;;;1.20;1.10;;;;;;;22.61;100.00;99931.06;109032;1254;74277;-50
2023/08/22 04:51:04;;;;;;;1.30;0.90;;;;;;;22.54;100.00;99927.25;106773;1254;67324;-50
2023/08/22 04:53:31;;;;;;;1.10;0.90;;;;;;;22.43;100.00;99929.21;106082;1257;71408;-50
2023/08/22 04:55:59;;;;;;;1.30;1.10;;;;;;;22.33;100.00;99927.09;104939;1267;60512;-51
2023/08/22 05:00:39;;;;;;;2.80;1.10;;;;;;;22.20;100.00;100009.42;102211;1293;599612;-50
2023/08/22 05:03:08;;;;;;;4.20;1.20;;;;;;;22.13;100.00;100007.70;105734;1266;60369;-50
2023/08/22 05:05:35;;;;;;;1.10;1.00;;;;;;;22.09;100.00;99995.79;105974;1265;60028;-52
2023/08/22 05:08:03;;;;;;;2.20;1.30;;;;;;;22.06;100.00;99989.73;104376;1266;72183;-50
2023/08/22 05:10:31;;;;;;;1.20;1.10;;;;;;;22.02;100.00;99988.27;104475;1270;66903;-50
2023/08/22 05:12:58;;;;;;;2.00;0.90;;;;;;;21.99;100.00;99981.59;104281;1267;72681;-51
2023/08/22 05:15:25;;;;;;;1.20;1.10;;;;;;;22.00;100.00;99985.54;104431;1269;147007;-50
2023/08/22 05:17:53;;;;;;;2.00;1.00;;;;;;;22.01;100.00;99982.70;104593;1262;59225;-51
2023/08/22 05:20:21;;;;;;;3.50;1.80;;;;;;;22.03;100.00;99980.30;104653;1269;71082;-49
2023/08/22 05:22:48;;;;;;;1.70;1.30;;;;;;;22.06;100.00;99984.95;104697;1264;66758;-50
2023/08/22 05:25:17;;;;;;;1.60;1.30;;;;;;;22.08;100.00;99987.46;104876;1266;71392;-48
2023/08/22 05:27:44;;;;;;;1.70;1.40;;;;;;;22.10;100.00;99990.94;104450;1264;60833;-50
2023/08/22 05:30:13;;;;;;;3.60;1.60;;;;;;;22.11;100.00;99991.27;104511;1265;59843;-51
2023/08/22 05:32:40;;;;;;;2.10;1.60;;;;;;;22.11;100.00;99989.81;104517;1267;73033;-51
2023/08/22 05:35:08;;;;;;;2.00;1.80;;;;;;;22.10;100.00;99988.08;104718;1267;66711;-50
2023/08/22 05:37:35;;;;;;;2.90;1.60;;;;;;;22.12;100.00;99989.31;104604;1264;72671;-50
2023/08/22 05:40:06;;;;;;;3.80;1.60;;;;;;;22.14;100.00;99988.22;104546;1266;60543;-50
2023/08/22 05:42:33;;;;;;;2.00;1.50;;;;;;;22.16;100.00;99986.38;104521;1264;61988;-51
2023/08/22 05:45:01;;;;;;;3.50;1.80;;;;;;;22.16;100.00;99986.52;104521;1265;73049;-52
2023/08/22 05:47:29;;;;;;;3.90;1.70;;;;;;;22.18;100.00;99986.39;104861;1264;65678;-49
2023/08/22 05:49:56;;;;;;;3.70;1.90;;;;;;;22.22;100.00;99988.20;104455;1273;72715;-50
2023/08/22 05:52:25;;;;;;;2.70;1.80;;;;;;;22.25;100.00;99989.95;104435;1264;61745;-50
2023/08/22 05:54:53;;;;;;;2.00;1.50;;;;;;;22.26;100.00;99987.11;104505;1267;60985;-50
2023/08/22 05:57:22;;;;;;;2.40;2.20;;;;;;;22.29;100.00;99982.48;104859;1267;73045;-51
2023/08/22 05:59:51;;;;;;;5.00;1.80;;;;;;;22.32;100.00;99985.29;104620;1271;66771;-50
2023/08/22 06:02:19;;;;;;;4.80;1.90;;;;;;;22.33;100.00;99977.16;104449;1266;71421;-51
2023/08/22 06:04:46;;;;;;;2.20;1.50;;;;;;;22.36;100.00;99969.95;108165;1265;60240;-52
2023/08/22 06:07:14;;;;;;;1.60;1.20;;;;;;;22.40;100.00;99975.02;104807;1265;59908;-51
2023/08/22 06:09:41;;;;;;;3.10;1.50;;;;;;;22.46;100.00;99971.70;104471;1268;73461;-51
2023/08/22 06:12:09;;;;;;;2.00;1.30;;;;;;;22.52;100.00;99971.69;104412;1266;65657;-49
2023/08/22 06:14:37;;;;;;;3.30;1.30;;;;;;;22.56;100.00;99970.69;104625;1270;71351;-50
2023/08/22 06:17:05;;;;;;;1.80;1.30;;;;;;;22.60;100.00;99973.47;104534;1265;60801;-50
2023/08/22 06:19:32;;;;;;;1.20;1.10;;;;;;;22.63;100.00;99970.20;104715;1267;59680;-50
2023/08/22 06:21:59;;;;;;;2.00;1.00;;;;;;;22.67;100.00;99979.94;104454;1271;73072;-50
2023/08/22 06:24:27;;;;;;;1.30;1.20;;;;;;;22.68;100.00;99973.21;104455;1271;66376;-49
2023/08/22 06:26:54;;;;;;;1.10;1.00;;;;;;;22.71;100.00;99982.09;104394;1266;72648;-52
2023/08/22 06:29:21;;;;;;;1.60;1.00;;;;;;;22.72;100.00;99982.93;104685;1264;59772;-51
2023/08/22 06:31:49;;;;;;;1.20;1.00;;;;;;;22.74;100.00;99979.80;104563;1266;59679;-51
2023/08/22 06:34:16;;;;;;;2.60;1.20;;;;;;;22.77;100.00;99979.59;104610;1266;73058;-51
2023/08/22 06:36:44;;;;;;;1.60;0.90;;;;;;;22.80;100.00;99975.48;104557;1265;65582;-51
2023/08/22 06:39:12;;;;;;;2.90;0.90;;;;;;;22.84;100.00;99980.36;105011;1266;71427;-52
2023/08/22 06:41:39;;;;;;;1.00;0.90;;;;;;;22.86;100.00;99982.33;104518;1270;60507;-51
2023/08/22 06:44:10;;;;;;;3.00;0.80;;;;;;;22.86;100.00;99988.71;104671;1266;59846;-50
2023/08/22 06:46:38;;;;;;;2.70;0.80;;;;;;;22.88;100.00;99989.52;105007;1257;72595;-50
2023/08/22 06:49:05;;;;;;;0.90;0.70;;;;;;;22.86;100.00;99993.88;104800;1263;67017;-52
2023/08/22 06:51:33;;;;;;;0.70;0.70;;;;;;;22.82;100.00;99988.59;105102;1258;71307;-51
2023/08/22 06:54:01;;;;;;;1.10;0.60;;;;;;;22.76;100.00;99985.89;105130;1260;60479;-51
2023/08/22 06:56:28;;;;;;;1.10;0.50;;;;;;;22.75;100.00;99987.21;105163;1257;59798;-51
2023/08/22 06:58:56;;;;;;;1.70;0.50;;;;;;;22.75;100.00;99983.38;105116;1262;73604;-51
2023/08/22 07:01:23;;;;;;;4.10;0.60;;;;;;;22.75;100.00;99982.63;105015;1263;65512;-51
2023/08/22 07:03:50;;;;;;;0.80;0.50;;;;;;;22.76;100.00;99979.61;105018;1259;72660;-52
2023/08/22 07:06:32;;;;;;;1.00;0.60;;;;;;;22.79;100.00;99991.11;105025;1263;60231;-52
2023/08/22 07:08:59;;;;;;;3.00;0.70;;;;;;;22.81;100.00;99993.95;105060;1264;59668;-48
2023/08/22 07:11:27;;;;;;;2.50;1.20;;;;;;;22.84;100.00;99998.27;104673;1258;74687;-52
2023/08/22 07:13:55;;;;;;;1.00;0.50;;;;;;;22.88;100.00;99994.25;104596;1257;65838;-52
2023/08/22 07:16:22;;;;;;;2.60;0.50;;;;;;;22.90;100.00;99989.96;104680;1259;72646;-51
2023/08/22 07:18:50;;;;;;;1.30;0.40;;;;;;;22.92;100.00;99997.48;108077;1260;60012;-52
2023/08/22 07:21:17;;;;;;;1.20;0.40;;;;;;;22.95;100.00;100001.90;105140;1262;59745;-50
2023/08/22 07:23:44;;;;;;;0.70;0.40;;;;;;;22.99;100.00;100001.94;105113;1257;73387;-50
2023/08/22 07:26:12;;;;;;;3.80;0.50;;;;;;;23.03;100.00;100000.30;105085;1257;66795;-51
2023/08/22 07:28:39;;;;;;;2.30;0.40;;;;;;;23.07;100.00;99999.53;105112;1261;71919;-53
2023/08/22 07:31:06;;;;;;;3.30;0.50;;;;;;;23.09;100.00;100003.92;104921;1258;59629;-52
2023/08/22 07:35:27;;;;;;;2.40;0.40;;;;;;;23.11;100.00;100089.92;101624;1289;600532;-50
2023/08/22 07:37:54;;;;;;;1.00;0.40;;;;;;;23.09;100.00;100089.58;104560;1268;60052;-51
2023/08/22 07:40:22;;;;;;;1.20;0.40;;;;;;;23.08;100.00;100081.41;103748;1267;59302;-51
2023/08/22 07:42:49;;;;;;;2.20;0.30;;;;;;;23.09;100.00;100078.42;103876;1270;70136;-51
2023/08/22 07:45:16;;;;;;;0.50;0.30;;;;;;;23.10;100.00;100066.23;103953;1266;66347;-51
2023/08/22 07:47:44;;;;;;;0.60;0.40;;;;;;;23.12;100.00;100061.27;104049;1267;72553;-51
2023/08/22 07:50:12;;;;;;;0.40;0.40;;;;;;;23.14;100.00;100053.80;104151;1264;146795;-51
2023/08/22 07:52:39;;;;;;;2.00;0.30;;;;;;;23.17;100.00;100049.77;104094;1268;59187;-50
2023/08/22 07:55:07;;;;;;;1.20;0.30;;;;;;;23.21;100.00;100058.73;104261;1263;72221;-49
2023/08/22 07:57:34;;;;;;;1.90;0.30;;;;;;;23.26;100.00;100054.96;108425;1263;66835;-52
2023/08/22 08:00:07;;;;;;;5.90;0.50;;;;;;;23.29;100.00;100058.18;108496;1263;71323;-52
2023/08/22 08:02:38;;;;;;;4.40;0.40;;;;;;;23.33;100.00;100055.87;108424;1263;60624;-51
2023/08/22 08:05:06;;;;;;;1.90;0.30;;;;;;;23.38;100.00;100052.92;108452;1263;60513;-51
2023/08/22 08:07:34;;;;;;;0.70;0.40;;;;;;;23.42;100.00;100060.96;108356;1264;73453;-51
2023/08/22 08:10:01;;;;;;;0.70;0.40;;;;;;;23.46;100.00;100055.48;104951;1265;67001;-52
2023/08/22 08:12:29;;;;;;;1.50;0.30;;;;;;;23.51;100.00;100051.81;104325;1266;72690;-51
2023/08/22 08:14:56;;;;;;;0.80;0.30;;;;;;;23.57;100.00;100053.83;104181;1268;60590;-51
2023/08/22 08:17:23;;;;;;;3.80;0.40;;;;;;;23.62;100.00;100053.11;104189;1263;60536;-50
2023/08/22 08:19:51;;;;;;;3.20;0.40;;;;;;;23.67;100.00;100051.02;104576;1265;71883;-52
2023/08/22 08:22:18;;;;;;;4.60;0.40;;;;;;;23.68;100.00;100054.69;104161;1263;65837;-50
2023/08/22 08:24:45;;;;;;;0.70;0.30;;;;;;;23.68;100.00;100052.89;104253;1263;72450;-49
2023/08/22 08:27:13;;;;;;;2.30;0.30;;;;;;;23.67;100.00;100050.42;104308;1264;60117;-51
2023/08/22 08:29:40;;;;;;;0.70;0.60;;;;;;;23.67;100.00;100054.64;104243;1269;60037;-52
2023/08/22 08:32:07;;;;;;;7.00;0.30;;;;;;;23.71;100.00;100048.39;104343;1268;72968;-49
2023/08/22 08:34:35;;;;;;;1.20;0.40;;;;;;;23.78;100.00;100052.48;104233;1263;65799;-50
2023/08/22 08:37:04;;;;;;;1.80;0.30;;;;;;;23.84;100.00;100053.70;104145;1263;73080;-50
2023/08/22 08:39:31;;;;;;;2.70;0.30;;;;;;;23.90;100.00;100051.30;104402;1263;64072;-49
2023/08/22 08:42:10;;;;;;;3.90;0.30;;;;;;;23.94;100.00;100057.52;104120;1264;59769;-51
2023/08/22 08:44:37;;;;;;;3.30;0.70;;;;;;;23.95;100.00;100053.33;104074;1264;73968;-50
2023/08/22 08:47:06;;;;;;;2.80;0.30;;;;;;;23.98;100.00;100051.77;104025;1264;65511;-52
2023/08/22 08:49:34;;;;;;;1.20;0.40;;;;;;;24.04;100.00;100053.34;104533;1270;73255;-49
2023/08/22 08:52:05;;;;;;;3.60;0.30;;;;;;;24.13;100.00;100046.60;104556;1263;59696;-51
2023/08/22 08:54:33;;;;;;;1.00;0.30;;;;;;;24.22;100.00;100049.55;104592;1264;59753;-51
2023/08/22 08:57:00;;;;;;;2.50;0.30;;;;;;;24.29;100.00;100049.94;104277;1263;73409;-52
2023/08/22 08:59:28;;;;;;;3.20;0.60;;;;;;;24.31;100.00;100050.48;104830;1262;67051;-50
2023/08/22 09:01:56;;;;;;;1.90;0.30;;;;;;;24.31;100.00;100050.48;104514;1257;71484;-51
2023/08/22 09:04:23;;;;;;;1.90;0.40;;;;;;;24.33;100.00;100060.52;104823;1256;60463;-50
2023/08/22 09:06:51;;;;;;;5.70;0.40;;;;;;;24.37;100.00;100065.66;104830;1256;59728;-50
2023/08/22 09:09:20;;;;;;;2.70;0.40;;;;;;;24.40;100.00;100056.39;104960;1259;73585;-51
2023/08/22 09:13:27;;;;;;;10.70;0.30;;;;;;;24.45;100.00;100140.20;101450;1295;599954;-48
2023/08/22 09:16:15;;;;;;;1.30;0.30;;;;;;;24.48;100.00;100137.35;108479;1266;58890;-51
2023/08/22 09:18:43;;;;;;;0.90;0.20;;;;;;;24.48;100.00;100120.80;108240;1264;58757;-51
2023/08/22 09:21:10;;;;;;;0.60;0.30;;;;;;;24.47;100.00;100111.77;108448;1263;70804;-50
2023/08/22 09:23:39;;;;;;;1.10;0.30;;;;;;;24.46;100.00;100106.25;109214;1252;67837;-49
2023/08/22 09:26:07;;;;;;;3.80;0.30;;;;;;;24.42;100.00;100098.45;109092;1251;141229;-51
2023/08/22 09:28:41;;;;;;;0.50;0.30;;;;;;;24.43;100.00;100083.73;109354;1251;60098;-51
2023/08/22 09:31:08;;;;;;;2.40;0.30;;;;;;;24.47;100.00;100089.61;109499;1250;60493;-50
2023/08/22 09:33:45;;;;;;;0.30;0.20;;;;;;;24.49;100.00;100089.70;109221;1250;70978;-51
2023/08/22 09:36:17;;;;;;;2.80;0.40;;;;;;;24.53;100.00;100084.44;109405;1251;65992;-50
2023/08/22 09:38:55;;;;;;;1.90;0.30;;;;;;;24.55;100.00;100087.70;106437;1253;71189;-50
2023/08/22 09:41:24;;;;;;;0.70;0.30;;;;;;;24.58;100.00;100085.13;106139;1253;62303;-51
2023/08/22 09:44:00;;;;;;;2.00;0.60;;;;;;;24.61;100.00;100083.73;105178;1251;60955;-48
2023/08/22 09:46:27;;;;;;;0.40;0.20;;;;;;;24.60;100.00;100077.57;105154;1251;71751;-50
2023/08/22 09:48:55;;;;;;;0.50;0.30;;;;;;;24.58;100.00;100073.05;104975;1257;67201;-49
2023/08/22 09:51:23;;;;;;;0.40;0.20;;;;;;;24.53;100.00;100065.84;105112;1253;72464;-48
2023/08/22 09:53:52;;;;;;;0.20;0.20;;;;;;;24.50;100.00;100063.05;106120;1259;60003;-51
2023/08/22 09:56:19;;;;;;;1.00;0.40;;;;;;;24.53;100.00;100055.82;105495;1257;59742;-52
2023/08/22 09:58:47;;;;;;;0.80;0.20;;;;;;;24.58;100.00;100061.66;105143;1251;74565;-50
2023/08/22 10:01:16;;;;;;;2.00;0.30;;;;;;;24.65;100.00;100066.45;107136;1254;65677;-51
2023/08/22 10:03:44;;;;;;;2.60;0.30;;;;;;;24.71;100.00;100066.00;105591;1257;71444;-49
2023/08/22 10:06:13;;;;;;;1.30;0.30;;;;;;;24.73;100.00;100061.45;105687;1257;60081;-50
2023/08/22 10:08:41;;;;;;;0.70;0.30;;;;;;;24.76;100.00;100069.73;105644;1251;59660;-50
2023/08/22 10:11:10;;;;;;;2.30;0.20;;;;;;;24.79;100.00;100063.21;106119;1253;71832;-50
2023/08/22 10:13:37;;;;;;;1.60;0.30;;;;;;;24.79;100.00;100067.56;104935;1251;66768;-50
2023/08/22 10:16:04;;;;;;;4.30;0.30;;;;;;;24.82;100.00;100064.15;104930;1254;74636;-50
2023/08/22 10:18:32;;;;;;;0.80;0.30;;;;;;;24.85;100.00;100056.08;105173;1251;60169;-50
2023/08/22 10:20:59;;;;;;;2.30;0.30;;;;;;;24.88;100.00;100059.29;105033;1251;59666;-50
2023/08/22 10:23:52;;;;;;;2.40;0.20;;;;;;;24.90;100.00;100052.88;105184;1256;71828;-50
2023/08/22 10:26:19;;;;;;;0.30;0.30;;;;;;;24.92;100.00;100059.35;104995;1257;65501;-50
2023/08/22 10:29:13;;;;;;;0.60;0.30;;;;;;;24.89;100.00;100056.06;105309;1253;71495;-50
2023/08/22 10:32:02;;;;;;;1.20;0.30;;;;;;;24.85;100.00;100053.67;105014;1251;60057;-49
2023/08/22 10:34:38;;;;;;;0.30;0.20;;;;;;;24.83;100.00;100061.04;105101;1254;59657;-50
2023/08/22 10:37:16;;;;;;;1.30;0.30;;;;;;;24.86;100.00;100063.55;105053;1254;74482;-50
2023/08/22 10:39:48;;;;;;;1.50;0.30;;;;;;;24.88;100.00;100053.05;105265;1254;66881;-50
2023/08/22 10:42:17;;;;;;;2.60;0.30;;;;;;;24.93;100.00;100063.62;105421;1254;71060;-50
2023/08/22 10:45:03;;;;;;;1.60;0.30;;;;;;;24.97;100.00;100051.41;105047;1254;59644;-51
2023/08/22 10:47:33;;;;;;;0.60;0.20;;;;;;;25.03;100.00;100062.92;105078;1251;60096;-50
2023/08/22 10:50:00;;;;;;;1.00;0.20;;;;;;;25.08;100.00;100050.83;105281;1253;73057;-51
2023/08/22 10:52:43;;;;;;;2.70;1.20;;;;;;;25.15;100.00;100048.05;105262;1257;66829;-50
2023/08/22 10:55:12;;;;;;;3.20;0.30;;;;;;;25.20;100.00;100053.73;105231;1254;71429;-50
2023/08/22 10:57:41;;;;;;;1.00;0.30;;;;;;;25.23;100.00;100052.94;105358;1253;60590;-50
2023/08/22 11:00:19;;;;;;;3.00;0.30;;;;;;;25.23;100.00;100061.31;105274;1251;59793;-50
2023/08/22 11:02:51;;;;;;;2.80;0.30;;;;;;;25.27;100.00;100056.54;104979;1251;73040;-51
2023/08/22 11:05:18;;;;;;;0.60;0.20;;;;;;;25.34;100.00;100051.98;105598;1254;65220;-50
2023/08/22 11:07:46;;;;;;;0.50;0.30;;;;;;;25.41;100.00;100050.62;105037;1254;72795;-50
2023/08/22 11:10:14;;;;;;;1.10;0.30;;;;;;;25.47;100.00;100056.10;105351;1256;59676;-50
2023/08/22 11:12:43;;;;;;;2.80;0.20;;;;;;;25.51;100.00;100049.08;104989;1257;59809;-51
2023/08/22 11:15:13;;;;;;;0.70;0.30;;;;;;;25.57;100.00;100047.88;106231;1257;75633;-51
2023/08/22 11:17:40;;;;;;;5.10;0.30;;;;;;;25.61;100.00;100049.44;105114;1254;66875;-50
2023/08/22 11:20:12;;;;;;;2.90;0.40;;;;;;;25.62;100.00;100048.20;105265;1257;72383;-50
2023/08/22 11:22:40;;;;;;;0.60;0.30;;;;;;;25.59;100.00;100052.98;105313;1251;59798;-51
2023/08/22 11:25:07;;;;;;;2.10;0.20;;;;;;;25.55;100.00;100051.71;105068;1253;60031;-48
2023/08/22 11:27:38;;;;;;;2.10;0.20;;;;;;;25.51;100.00;100035.30;104919;1256;71825;-50